Weerpagina Nieuwendam Historical Data
 
Daily Summary for January 28, 2023 Units:  Metric    English   Both
Daily Weekly Monthly Yearly
  Current: High: Low: Average:
Temperature: 5.2 °C 8.5 °C 2.4 °C 4.6 °C
Dew Point: 2 °C 2.5 °C -0.1 °C 1.1 °C
Humidity: 80% 87.8% 64% 79%
Wind Speed: 3.9km/h 11.8km/h 0km/h 4.4km/h
Wind Gust: 1.6km/h 14.5km/h - -
WindWSW - - SSE
Pressure: 1029.5 hPa 1031.1 hPa 1029.2 hPa -
Precipitation: 0.0 mm      
 
 
Tabular Data for January 28, 2023
Time Temperature Dew Point Pressure Wind Wind Speed Wind Gust Humidity Rainfall Rate (Hourly) solar
00:04 3.2 °C 1.2 °C 1029.5 hPa North 2.2 km/h 8 km/h 87% 0.0 mm 0 W/m2
00:09 3.2 °C 1.3 °C 1029.5 hPa North 5.6 km/h 5.1 km/h 87.3% 0.0 mm 0 W/m2
00:14 3.2 °C 1.4 °C 1029.5 hPa NNW 5 km/h 2.3 km/h 87.8% 0.0 mm 0 W/m2
00:19 3.2 °C 1.3 °C 1029.5 hPa North 7 km/h 9.7 km/h 87.4% 0.0 mm 0 W/m2
00:24 3.1 °C 1.3 °C 1029.5 hPa North 10.3 km/h 9.5 km/h 87.4% 0.0 mm 0 W/m2
00:29 3.1 °C 1.1 °C 1029.5 hPa NNW 6.5 km/h 6.1 km/h 87% 0.0 mm 0 W/m2
00:34 3.1 °C 1.1 °C 1029.5 hPa North 11.8 km/h 14.5 km/h 87% 0.0 mm 0 W/m2
00:39 3 °C 1.1 °C 1029.6 hPa NNW 6.5 km/h 6.4 km/h 87% 0.0 mm 0 W/m2
00:44 3 °C 1.1 °C 1029.5 hPa North 7.3 km/h 7.7 km/h 87% 0.0 mm 0 W/m2
00:49 3 °C 1 °C 1029.5 hPa North 9.4 km/h 12.9 km/h 87% 0.0 mm 0 W/m2
00:54 2.9 °C 1 °C 1029.5 hPa NNE 8.9 km/h 9.2 km/h 87% 0.0 mm 0 W/m2
00:59 2.9 °C 1 °C 1029.6 hPa NNE 6.7 km/h 8.5 km/h 87% 0.0 mm 0 W/m2
01:04 2.9 °C 1 °C 1029.6 hPa NNE 10.7 km/h 7.7 km/h 87% 0.0 mm 0 W/m2
01:08 2.9 °C 1 °C 1029.6 hPa NNE 4.3 km/h 3.9 km/h 87% 0.0 mm 0 W/m2
01:14 2.9 °C 1 °C 1029.6 hPa North 4.4 km/h 3.9 km/h 87% 0.0 mm 0 W/m2
01:19 2.9 °C 1 °C 1029.5 hPa North 6.8 km/h 12.9 km/h 87% 0.0 mm 0 W/m2
01:24 2.9 °C 1 °C 1029.5 hPa NNW 10.3 km/h 7.2 km/h 87% 0.0 mm 0 W/m2
01:29 2.9 °C 1 °C 1029.4 hPa NNW 9 km/h 6.4 km/h 87% 0.0 mm 0 W/m2
01:34 2.9 °C 1 °C 1029.4 hPa North 9.6 km/h 6.8 km/h 87% 0.0 mm 0 W/m2
01:39 2.9 °C 0.8 °C 1029.5 hPa North 6.6 km/h 6.6 km/h 86% 0.0 mm 0 W/m2
01:44 2.9 °C 0.9 °C 1029.5 hPa North 5.6 km/h 4.2 km/h 86.5% 0.0 mm 0 W/m2
01:49 2.9 °C 1 °C 1029.4 hPa NNW 6.1 km/h 12.9 km/h 87% 0.0 mm 0 W/m2
01:54 2.9 °C 1 °C 1029.5 hPa NNW 6.1 km/h 3.7 km/h 87% 0.0 mm 0 W/m2
01:59 2.9 °C 1 °C 1029.5 hPa North 6.5 km/h 6.1 km/h 87% 0.0 mm 0 W/m2
02:04 2.9 °C 0.9 °C 1029.5 hPa NE 7.3 km/h 5 km/h 86.5% 0.0 mm 0 W/m2
02:09 2.9 °C 0.7 °C 1029.5 hPa North 7.8 km/h 6 km/h 86% 0.0 mm 0 W/m2
02:14 2.8 °C 0.7 °C 1029.5 hPa NNE 7 km/h 5.5 km/h 86% 0.0 mm 0 W/m2
02:18 2.8 °C 0.7 °C 1029.5 hPa NE 6.5 km/h 9.7 km/h 86% 0.0 mm 0 W/m2
02:24 2.8 °C 0.7 °C 1029.5 hPa NE 4.1 km/h 2.7 km/h 86% 0.0 mm 0 W/m2
02:29 2.8 °C 0.7 °C 1029.5 hPa NE 7.6 km/h 6 km/h 86% 0.0 mm 0 W/m2
02:34 2.8 °C 0.7 °C 1029.5 hPa North 7 km/h 5.3 km/h 86% 0.0 mm 0 W/m2
02:38 2.8 °C 0.7 °C 1029.5 hPa NNE 4.6 km/h 4.8 km/h 86% 0.0 mm 0 W/m2
02:44 2.8 °C 0.7 °C 1029.5 hPa NNE 8 km/h 5.1 km/h 86% 0.0 mm 0 W/m2
02:49 2.8 °C 0.7 °C 1029.5 hPa NE 5.1 km/h 4 km/h 86% 0.0 mm 0 W/m2
02:54 2.8 °C 0.7 °C 1029.5 hPa NE 2.8 km/h 2.1 km/h 86% 0.0 mm 0 W/m2
02:59 2.8 °C 0.7 °C 1029.5 hPa NNE 8.2 km/h 7.9 km/h 86% 0.0 mm 0 W/m2
03:04 2.8 °C 0.7 °C 1029.5 hPa NNE 2.7 km/h 1.8 km/h 86% 0.0 mm 0 W/m2
03:09 2.8 °C 0.7 °C 1029.6 hPa NNE 4.4 km/h 3.2 km/h 86% 0.0 mm 0 W/m2
03:14 2.8 °C 0.7 °C 1029.6 hPa North 6.1 km/h 6.3 km/h 86% 0.0 mm 0 W/m2
03:19 2.8 °C 0.7 °C 1029.7 hPa North 4.7 km/h 11.3 km/h 86% 0.0 mm 0 W/m2
03:24 2.8 °C 0.7 °C 1029.7 hPa NNE 6 km/h 5 km/h 86% 0.0 mm 0 W/m2
03:29 2.8 °C 0.7 °C 1029.7 hPa North 7.8 km/h 6.1 km/h 86% 0.0 mm 0 W/m2
03:34 2.7 °C 0.6 °C 1029.6 hPa North 4.7 km/h 5.5 km/h 86% 0.0 mm 0 W/m2
03:39 2.7 °C 0.6 °C 1029.7 hPa NNW 4.5 km/h 10.3 km/h 86% 0.0 mm 0 W/m2
03:44 2.7 °C 0.6 °C 1029.6 hPa North 11.6 km/h 8.9 km/h 86% 0.0 mm 0 W/m2
03:49 2.7 °C 0.5 °C 1029.6 hPa NNW 8.4 km/h 8.5 km/h 85.3% 0.0 mm 0 W/m2
03:54 2.7 °C 0.4 °C 1029.6 hPa NNE 4.1 km/h 3.9 km/h 85% 0.0 mm 0 W/m2
03:59 2.7 °C 0.5 °C 1029.6 hPa NNE 5.6 km/h 4 km/h 85% 0.0 mm 0 W/m2
04:04 2.8 °C 0.5 °C 1029.7 hPa North 7.3 km/h 5.1 km/h 85% 0.0 mm 0 W/m2
04:09 2.7 °C 0.5 °C 1029.7 hPa North 5.1 km/h 5.3 km/h 85% 0.0 mm 0 W/m2
04:14 2.8 °C 0.6 °C 1029.6 hPa NE 4 km/h 3.2 km/h 85.7% 0.0 mm 0 W/m2
04:19 2.7 °C 0.6 °C 1029.6 hPa NNE 3.9 km/h 12.9 km/h 86% 0.0 mm 0 W/m2
04:24 2.7 °C 0.6 °C 1029.6 hPa NE 4.4 km/h 4.2 km/h 86% 0.0 mm 0 W/m2
04:29 2.7 °C 0.6 °C 1029.6 hPa ENE 4.7 km/h 4 km/h 86% 0.0 mm 0 W/m2
04:34 2.7 °C 0.5 °C 1029.6 hPa NE 5 km/h 3.5 km/h 86% 0.0 mm 0 W/m2
04:39 2.6 °C 0.5 °C 1029.6 hPa NE 3 km/h 1.3 km/h 86% 0.0 mm 0 W/m2
04:44 2.6 °C 0.5 °C 1029.7 hPa NE 4.1 km/h 4.3 km/h 86% 0.0 mm 0 W/m2
04:49 2.6 °C 0.4 °C 1029.8 hPa NNE 2.8 km/h 2.7 km/h 86% 0.0 mm 0 W/m2
04:54 2.6 °C 0.4 °C 1029.9 hPa NE 4.6 km/h 4.3 km/h 85.5% 0.0 mm 0 W/m2
04:59 2.6 °C 0.3 °C 1029.9 hPa NE 3.7 km/h 2.4 km/h 85.3% 0.0 mm 0 W/m2
05:04 2.6 °C 0.3 °C 1029.9 hPa North 5.8 km/h 5.6 km/h 85% 0.0 mm 0 W/m2
05:09 2.6 °C 0.3 °C 1029.9 hPa NNE 4.1 km/h 3.7 km/h 85% 0.0 mm 0 W/m2
05:13 2.6 °C 0.3 °C 1029.8 hPa North 2.2 km/h 2.3 km/h 85% 0.0 mm 0 W/m2
05:19 2.6 °C 0.3 °C 1029.8 hPa North 3.6 km/h 8 km/h 85% 0.0 mm 0 W/m2
05:24 2.6 °C 0.3 °C 1029.7 hPa North 4.6 km/h 3.7 km/h 85% 0.0 mm 0 W/m2
05:29 2.6 °C 0.3 °C 1029.7 hPa North 3.5 km/h 3.4 km/h 85% 0.0 mm 0 W/m2
05:34 2.6 °C 0.3 °C 1029.7 hPa ENE 5.8 km/h 8 km/h 85% 0.0 mm 0 W/m2
05:39 2.6 °C 0.2 °C 1029.6 hPa ENE 3.7 km/h 3.2 km/h 84.4% 0.0 mm 0 W/m2
05:44 2.6 °C 0.1 °C 1029.6 hPa ENE 3 km/h 2.4 km/h 84% 0.0 mm 0 W/m2
05:49 2.5 °C 0.1 °C 1029.7 hPa ENE 2.8 km/h 4.8 km/h 84% 0.0 mm 0 W/m2
05:53 2.5 °C 0.1 °C 1029.7 hPa ENE 2.8 km/h 2.1 km/h 84% 0.0 mm 0 W/m2
05:59 2.5 °C 0.1 °C 1029.9 hPa North 8 km/h 5.8 km/h 84% 0.0 mm 0 W/m2
06:03 2.5 °C 0.1 °C 1029.8 hPa North 4.7 km/h 11.3 km/h 84% 0.0 mm 0 W/m2
06:09 2.5 °C 0.1 °C 1029.9 hPa NNE 5.8 km/h 5 km/h 84% 0.0 mm 0 W/m2
06:14 2.5 °C 0.1 °C 1029.8 hPa NNE 4.6 km/h 1.9 km/h 84% 0.0 mm 0 W/m2
06:19 2.5 °C 0.1 °C 1029.7 hPa NNE 3.6 km/h 8 km/h 84% 0.0 mm 0 W/m2
06:24 2.5 °C 0.1 °C 1029.8 hPa North 2.6 km/h 2.1 km/h 84% 0.0 mm 0 W/m2
06:29 2.5 °C 0.1 °C 1029.9 hPa North 3 km/h 2.4 km/h 84% 0.0 mm 0 W/m2
06:34 2.5 °C 0.1 °C 1029.8 hPa NNE 3.3 km/h 4.8 km/h 84% 0.0 mm 0 W/m2
06:39 2.5 °C 0 °C 1029.7 hPa NNE 2.3 km/h 0.8 km/h 84% 0.0 mm 0 W/m2
06:44 2.5 °C 0 °C 1029.8 hPa NNE 2.6 km/h 2.1 km/h 84% 0.0 mm 0 W/m2
06:49 2.4 °C 0 °C 1029.9 hPa Calm   3.2 km/h 84% 0.0 mm 0 W/m2
06:54 2.4 °C 0 °C 1029.8 hPa Calm     84% 0.0 mm 0 W/m2
06:59 2.4 °C 0 °C 1029.8 hPa NNE 1 km/h 0.8 km/h 84% 0.0 mm 0 W/m2
07:04 2.4 °C 0 °C 1029.8 hPa NNE 0.4 km/h 1.6 km/h 84% 0.0 mm 0 W/m2
07:09 2.4 °C 0 °C 1029.9 hPa NE 4.3 km/h 4.2 km/h 84% 0.0 mm 0 W/m2
07:14 2.4 °C 0 °C 1029.9 hPa NE 2.3 km/h 1.1 km/h 84% 0.0 mm 0 W/m2
07:19 2.4 °C 0 °C 1029.9 hPa NE 2.1 km/h 4.8 km/h 84% 0.0 mm 0 W/m2
07:24 2.4 °C 0 °C 1029.9 hPa NE 2.3 km/h 1.8 km/h 84% 0.0 mm 0 W/m2
07:29 2.4 °C 0 °C 1030.0 hPa NE 2.8 km/h 1.9 km/h 84% 0.0 mm 0 W/m2
07:34 2.4 °C 0 °C 1030.0 hPa NE 2.2 km/h 3.2 km/h 84% 0.0 mm 0 W/m2
07:39 2.4 °C 0 °C 1030.0 hPa NE 0.6 km/h 0.3 km/h 84% 0.0 mm 0 W/m2
07:44 2.4 °C 0 °C 1030.0 hPa Calm     84% 0.0 mm 0 W/m2
07:49 2.4 °C -0.1 °C 1029.9 hPa Calm   1.6 km/h 84% 0.0 mm 0 W/m2
07:54 2.4 °C -0.1 °C 1030.0 hPa NE 4.2 km/h 3.9 km/h 84% 0.0 mm 0 W/m2
07:59 2.4 °C 0 °C 1029.9 hPa NE 3.7 km/h 3.2 km/h 84% 0.0 mm 0 W/m2
08:04 2.4 °C 0 °C 1029.9 hPa NE 1.8 km/h 4.8 km/h 84% 0.0 mm 0 W/m2
08:09 2.4 °C 0 °C 1030.0 hPa NE 1.6 km/h 1.6 km/h 84% 0.0 mm 0 W/m2
08:14 2.4 °C 0 °C 1030.0 hPa Calm     84% 0.0 mm 0 W/m2
08:19 2.5 °C 0 °C 1030.0 hPa NE 1.2 km/h 1.6 km/h 84% 0.0 mm 0 W/m2
08:24 2.5 °C 0.1 °C 1030.0 hPa Calm     84% 0.0 mm 0 W/m2
08:29 2.5 °C 0.1 °C 1030.1 hPa NE 0.9 km/h 2.1 km/h 84% 0.0 mm 0 W/m2
08:34 2.5 °C 0.1 °C 1030.1 hPa NE 2.2 km/h 3.7 km/h 84% 0.0 mm 0 W/m2
08:39 2.4 °C 0 °C 1030.2 hPa NE 3.7 km/h 3.4 km/h 84% 0.0 mm 5 W/m2
08:44 2.4 °C 0 °C 1030.1 hPa NE 2.2 km/h 1.4 km/h 84% 0.0 mm 5 W/m2
08:49 2.5 °C 0 °C 1030.1 hPa NE 3.1 km/h 4.8 km/h 84% 0.0 mm 7 W/m2
08:54 2.5 °C 0.1 °C 1030.2 hPa ENE 3.7 km/h 2.7 km/h 84% 0.0 mm 7 W/m2
08:59 2.5 °C 0.1 °C 1030.1 hPa ENE 4.3 km/h 3.9 km/h 84% 0.0 mm 11 W/m2
09:04 2.4 °C 0 °C 1030.1 hPa ENE 4.1 km/h 4.8 km/h 84% 0.0 mm 12 W/m2
09:09 2.4 °C 0 °C 1030.2 hPa ENE 3.1 km/h 1.4 km/h 84% 0.0 mm 14 W/m2
09:14 2.4 °C -0.1 °C 1030.3 hPa ENE 3.2 km/h 1.9 km/h 84% 0.0 mm 23 W/m2
09:19 2.4 °C -0.1 °C 1030.5 hPa ENE 1 km/h 3.2 km/h 84% 0.0 mm 39 W/m2
09:24 2.4 °C -0.1 °C 1030.5 hPa ENE 1.2 km/h 1.1 km/h 84% 0.0 mm 42 W/m2
09:29 2.4 °C -0.1 °C 1030.5 hPa Calm     84% 0.0 mm 37 W/m2
09:34 2.4 °C 0 °C 1030.5 hPa Calm   1.6 km/h 84.5% 0.0 mm 30 W/m2
09:39 2.5 °C 0.3 °C 1030.5 hPa Calm     85.2% 0.0 mm 62 W/m2
09:44 2.9 °C 0.9 °C 1030.5 hPa Calm     86.6% 0.0 mm 60 W/m2
09:49 3.2 °C 1.1 °C 1030.6 hPa Calm     85.9% 0.0 mm 67 W/m2
09:54 3.3 °C 1 °C 1030.6 hPa Calm     84.5% 0.0 mm 135 W/m2
09:59 3.6 °C 1.2 °C 1030.7 hPa Calm     84% 0.0 mm 160 W/m2
10:04 4 °C 1.6 °C 1030.7 hPa Calm     84% 0.0 mm 142 W/m2
10:09 4.4 °C 1.7 °C 1030.9 hPa Calm     82.2% 0.0 mm 137 W/m2
10:14 4.9 °C 1.8 °C 1031.0 hPa ENE 1.5 km/h   80.2% 0.0 mm 146 W/m2
10:19 5.3 °C 1.8 °C 1030.9 hPa ENE 0.9 km/h 1.6 km/h 78.3% 0.0 mm 158 W/m2
10:24 5.7 °C 1.9 °C 1030.9 hPa ENE 1.9 km/h 1.3 km/h 76.4% 0.0 mm 183 W/m2
10:29 6.1 °C 1.9 °C 1030.9 hPa ENE 1.5 km/h 1.4 km/h 74.2% 0.0 mm 186 W/m2
10:34 6.5 °C 2 °C 1030.9 hPa ENE 0.4 km/h 3.2 km/h 73.2% 0.0 mm 192 W/m2
10:39 6.7 °C 1.9 °C 1030.9 hPa ENE 1.9 km/h 0.5 km/h 71.6% 0.0 mm 193 W/m2
10:44 6.7 °C 1.6 °C 1031.0 hPa NW 6 km/h 4.8 km/h 70.3% 0.0 mm 202 W/m2
10:49 6.5 °C 1.3 °C 1031.1 hPa NNW 3.1 km/h 8 km/h 69.3% 0.0 mm 213 W/m2
10:54 6.7 °C 1.7 °C 1031.1 hPa NW 5.1 km/h 4.8 km/h 70.5% 0.0 mm 220 W/m2
10:59 7 °C 1.8 °C 1031.1 hPa NW 1.9 km/h 1.6 km/h 69.7% 0.0 mm 230 W/m2
11:04 7.2 °C 1.8 °C 1031.1 hPa NW 2.3 km/h 4.8 km/h 68.8% 0.0 mm 239 W/m2
11:09 7 °C 1.5 °C 1031.1 hPa WNW 2.8 km/h 2.6 km/h 68% 0.0 mm 248 W/m2
11:14 6.9 °C 1.5 °C 1031.0 hPa WNW 2.8 km/h 1.3 km/h 68.3% 0.0 mm 248 W/m2
11:19 7 °C 1.7 °C 1031.0 hPa NW 2.9 km/h 4.2 km/h 69% 0.0 mm 297 W/m2
11:24 7.3 °C 1.9 °C 1031.1 hPa NNW 7 km/h 4.5 km/h 68.6% 0.0 mm 350 W/m2
11:28 7.2 °C 1.5 °C 1031.0 hPa NNW 4.1 km/h 3.5 km/h 67.2% 0.0 mm 156 W/m2
11:33 7 °C 1.4 °C 1030.9 hPa NNW 1.8 km/h 9.7 km/h 67.2% 0.0 mm 246 W/m2
11:39 7.1 °C 1.8 °C 1030.8 hPa NNW 3.1 km/h 2.4 km/h 68.8% 0.0 mm 288 W/m2
11:44 7.3 °C 1.8 °C 1030.6 hPa NNW 2.3 km/h 1.1 km/h 68% 0.0 mm 294 W/m2
11:49 7.5 °C 2 °C 1030.5 hPa NNW 1.8 km/h 3.2 km/h 68% 0.0 mm 294 W/m2
11:54 7.7 °C 2.1 °C 1030.3 hPa West 4.3 km/h 3.7 km/h 67.5% 0.0 mm 287 W/m2
11:59 7.7 °C 1.8 °C 1030.2 hPa West 4.6 km/h 3.9 km/h 66.1% 0.0 mm 290 W/m2
12:04 7.7 °C 2 °C 1030.0 hPa West 3.8 km/h 8 km/h 67% 0.0 mm 290 W/m2
12:09 7.8 °C 1.9 °C 1030.1 hPa West 2.9 km/h 3.4 km/h 66.3% 0.0 mm 292 W/m2
12:14 8 °C 2.1 °C 1029.9 hPa West 4.7 km/h 4.2 km/h 66.8% 0.0 mm 297 W/m2
12:19 8 °C 2.1 °C 1029.9 hPa West 2.5 km/h 6.4 km/h 66% 0.0 mm 297 W/m2
12:23 8 °C 1.9 °C 1029.8 hPa West 3.3 km/h 1.4 km/h 65.3% 0.0 mm 302 W/m2
12:29 7.8 °C 1.5 °C 1029.9 hPa South 6.6 km/h 6.3 km/h 64.5% 0.0 mm 308 W/m2
12:34 7 °C 0.9 °C 1029.9 hPa SE 7.3 km/h 11.3 km/h 65.4% 0.0 mm 308 W/m2
12:39 6.5 °C 1 °C 1030.0 hPa SE 6.7 km/h 5.3 km/h 67.8% 0.0 mm 309 W/m2
12:44 6.5 °C 1.2 °C 1030.0 hPa SSE 5.1 km/h 3.4 km/h 69% 0.0 mm 315 W/m2
12:49 6.5 °C 1.2 °C 1030.1 hPa SSE 3.3 km/h 11.3 km/h 69% 0.0 mm 323 W/m2
12:54 6.6 °C 1.3 °C 1030.2 hPa SSE 2.6 km/h 1.1 km/h 69% 0.0 mm 318 W/m2
12:59 6.8 °C 1.5 °C 1030.2 hPa SSW 4.3 km/h 4.7 km/h 69% 0.0 mm 327 W/m2
13:04 7.3 °C 2.1 °C 1030.2 hPa West 6.7 km/h 8 km/h 69.5% 0.0 mm 322 W/m2
13:08 7.9 °C 2.4 °C 1030.2 hPa NW 7.9 km/h 8 km/h 68.6% 0.0 mm 316 W/m2
13:14 8.3 °C 2.4 °C 1030.1 hPa West 5.6 km/h 7.4 km/h 66.5% 0.0 mm 323 W/m2
13:19 8.4 °C 2.3 °C 1030.0 hPa WNW 4.7 km/h 9.7 km/h 65.6% 0.0 mm 322 W/m2
13:24 8.2 °C 1.8 °C 1029.8 hPa WNW 6.4 km/h 4.2 km/h 64% 0.0 mm 350 W/m2
13:29 8.2 °C 2.1 °C 1029.7 hPa SW 7.5 km/h 4.8 km/h 65.8% 0.0 mm 439 W/m2
13:34 8.4 °C 2.5 °C 1029.6 hPa WSW 4.9 km/h 11.3 km/h 66.4% 0.0 mm 448 W/m2
13:39 8.5 °C 2.4 °C 1029.4 hPa WSW 6.5 km/h 7.6 km/h 65.2% 0.0 mm 109 W/m2
13:44 8.2 °C 1.8 °C 1029.3 hPa SW 3.8 km/h 3.1 km/h 64% 0.0 mm 84 W/m2
13:49 7.9 °C 1.9 °C 1029.3 hPa SW 4 km/h 9.7 km/h 65.4% 0.0 mm 262 W/m2
13:54 8 °C 2 °C 1029.4 hPa SW 2.4 km/h 2.1 km/h 66% 0.0 mm 274 W/m2
13:58 8.1 °C 2.1 °C 1029.4 hPa SW 3.8 km/h 2.6 km/h 66% 0.0 mm 281 W/m2
14:04 8.2 °C 2.1 °C 1029.3 hPa West 6.2 km/h 8 km/h 65.8% 0.0 mm 288 W/m2
14:08 8.2 °C 2 °C 1029.3 hPa WSW 5.3 km/h 5.3 km/h 65% 0.0 mm 246 W/m2
14:10 8.2 °C 2.2 °C 1029.3 hPa WSW 7.7 km/h 4 km/h 66% 0.0 mm 214 W/m2
14:19 8.4 °C 2.4 °C 1029.3 hPa WSW 7.8 km/h 8 km/h 65.8% 0.0 mm 185 W/m2
14:23 8.3 °C 1.9 °C 1029.3 hPa WSW 7.1 km/h 6.3 km/h 64% 0.0 mm 118 W/m2
14:29 8.1 °C 1.9 °C 1029.3 hPa WSW 7 km/h 6.4 km/h 65% 0.0 mm 165 W/m2
14:34 7.9 °C 2 °C 1029.4 hPa WSW 3.1 km/h 8 km/h 66% 0.0 mm 146 W/m2
14:38 7.8 °C 1.7 °C 1029.4 hPa WSW 7.9 km/h 7.7 km/h 65.6% 0.0 mm 111 W/m2
14:44 7.6 °C 1.8 °C 1029.4 hPa NW 7.4 km/h 4.8 km/h 66.8% 0.0 mm 102 W/m2
14:49 7.4 °C 1.8 °C 1029.4 hPa NW 4.9 km/h 9.7 km/h 67.3% 0.0 mm 86 W/m2
14:54 7.4 °C 1.9 °C 1029.4 hPa WNW 2.8 km/h 3.7 km/h 68% 0.0 mm 77 W/m2
14:59 7.2 °C 1.7 °C 1029.5 hPa NW 4.6 km/h 4.7 km/h 68% 0.0 mm 69 W/m2
15:04 7 °C 1.5 °C 1029.4 hPa NW 4.5 km/h 4.8 km/h 68% 0.0 mm 47 W/m2
15:09 6.9 °C 1.6 °C 1029.4 hPa West 3.5 km/h 2.3 km/h 69% 0.0 mm 53 W/m2
15:14 6.7 °C 1.4 °C 1029.3 hPa SSW 2.9 km/h 2.1 km/h 69% 0.0 mm 97 W/m2
15:19 6.6 °C 1.5 °C 1029.2 hPa SSW 2.8 km/h 6.4 km/h 70% 0.0 mm 186 W/m2
15:24 6.7 °C 1.8 °C 1029.3 hPa SW 2.7 km/h 2.6 km/h 71% 0.0 mm 181 W/m2
15:29 6.7 °C 1.8 °C 1029.3 hPa SW 3.8 km/h 3.9 km/h 70.8% 0.0 mm 214 W/m2
15:34 6.8 °C 1.7 °C 1029.3 hPa SW 4.4 km/h 8 km/h 70% 0.0 mm 218 W/m2
15:39 6.8 °C 1.8 °C 1029.4 hPa SW 4.8 km/h 4.7 km/h 70.8% 0.0 mm 86 W/m2
15:44 6.7 °C 1.8 °C 1029.5 hPa SW 3.5 km/h 3.4 km/h 71% 0.0 mm 74 W/m2
15:49 6.7 °C 1.8 °C 1029.5 hPa SW 4.3 km/h 8 km/h 71.3% 0.0 mm 60 W/m2
15:54 6.7 °C 2 °C 1029.5 hPa SW 6.2 km/h 4.3 km/h 72% 0.0 mm 53 W/m2
15:59 6.6 °C 2 °C 1029.5 hPa SW 4.5 km/h 6 km/h 72% 0.0 mm 53 W/m2
16:04 6.6 °C 1.9 °C 1029.7 hPa SW 5.7 km/h 8 km/h 72% 0.0 mm 44 W/m2
16:09 6.6 °C 2 °C 1029.8 hPa SW 5.4 km/h 3.9 km/h 72.6% 0.0 mm 35 W/m2
16:14 6.5 °C 2 °C 1029.8 hPa SW 5.7 km/h 4.8 km/h 73% 0.0 mm 25 W/m2
16:19 6.5 °C 2 °C 1029.6 hPa SW 3.5 km/h 8 km/h 73% 0.0 mm 21 W/m2
16:24 6.4 °C 1.9 °C 1029.6 hPa SW 6.3 km/h 7.1 km/h 73% 0.0 mm 26 W/m2
16:29 6.4 °C 1.9 °C 1029.7 hPa WSW 6.1 km/h 7.2 km/h 73% 0.0 mm 21 W/m2
16:34 6.3 °C 2.1 °C 1029.8 hPa WSW 4.7 km/h 9.7 km/h 74% 0.0 mm 16 W/m2
16:39 6.3 °C 2 °C 1029.6 hPa WSW 6.9 km/h 6.1 km/h 74% 0.0 mm 16 W/m2
16:44 6.3 °C 2 °C 1029.7 hPa WSW 5.4 km/h 6.3 km/h 74% 0.0 mm 14 W/m2
16:48 6.2 °C 2.1 °C 1029.7 hPa WSW 6.7 km/h 9.7 km/h 74.8% 0.0 mm 14 W/m2
16:54 6.2 °C 2.1 °C 1029.9 hPa WSW 8.8 km/h 8.7 km/h 75% 0.0 mm 11 W/m2
16:59 6.1 °C 2 °C 1029.8 hPa WSW 4.5 km/h 3.7 km/h 75% 0.0 mm 9 W/m2
17:04 6 °C 2.1 °C 1029.6 hPa WSW 4.6 km/h 11.3 km/h 76% 0.0 mm 9 W/m2
17:09 5.9 °C 2 °C 1029.7 hPa WSW 5.4 km/h 5.1 km/h 76% 0.0 mm 9 W/m2
17:14 5.9 °C 2.1 °C 1029.7 hPa WSW 4.8 km/h 3.9 km/h 76.8% 0.0 mm 5 W/m2
17:19 5.8 °C 2.1 °C 1029.7 hPa WSW 4.8 km/h 8 km/h 77% 0.0 mm 0 W/m2
17:24 5.8 °C 2 °C 1029.7 hPa WSW 4.8 km/h 4 km/h 77% 0.0 mm 0 W/m2
17:29 5.7 °C 2 °C 1029.7 hPa WSW 4.7 km/h 3.5 km/h 77% 0.0 mm 0 W/m2
17:34 5.7 °C 2.1 °C 1029.6 hPa WSW 3.8 km/h 9.7 km/h 78% 0.0 mm 0 W/m2
17:39 5.6 °C 2 °C 1029.8 hPa WSW 3.9 km/h 2.7 km/h 78% 0.0 mm 0 W/m2
17:44 5.6 °C 2 °C 1029.7 hPa WSW 4.8 km/h 2.9 km/h 78% 0.0 mm 0 W/m2
17:49 5.5 °C 2 °C 1029.7 hPa WSW 5.5 km/h 8 km/h 78.1% 0.0 mm 0 W/m2
17:54 5.4 °C 2 °C 1029.8 hPa WSW 4.2 km/h 2.1 km/h 78.6% 0.0 mm 0 W/m2
17:59 5.4 °C 2 °C 1029.8 hPa WSW 4.5 km/h 2.7 km/h 79% 0.0 mm 0 W/m2
18:04 5.3 °C 2 °C 1029.7 hPa WSW 4.2 km/h 6.4 km/h 79% 0.0 mm 0 W/m2
18:09 5.3 °C 2 °C 1029.7 hPa WSW 4.6 km/h 3.1 km/h 79.4% 0.0 mm 0 W/m2
18:14 5.2 °C 2.1 °C 1029.7 hPa WSW 2.7 km/h 3.2 km/h 80% 0.0 mm 0 W/m2
18:19 5.2 °C 2.1 °C 1029.7 hPa WSW 1.9 km/h 6.4 km/h 80% 0.0 mm 0 W/m2
18:23 5.2 °C 2 °C 1029.5 hPa WSW 3.9 km/h 1.6 km/h 80% 0.0 mm 0 W/m2
Weerpagina Nieuwendam
Compliments of Weather Underground - 2.75 mb